createdAt,value
2024-01-01T00:02:17.923Z,11.00
2024-01-01T00:04:49.698Z,9.57
2024-01-01T00:07:16.669Z,8.77
2024-01-01T00:09:43.758Z,8.00
2024-01-01T00:12:12.678Z,7.60
2024-01-01T00:14:46.566Z,8.33
2024-01-01T00:17:18.214Z,8.60
2024-01-01T00:19:52.760Z,10.27
2024-01-01T00:22:31.091Z,12.13
2024-01-01T00:25:01.001Z,12.03
2024-01-01T00:27:32.954Z,13.37
2024-01-01T00:30:01.434Z,13.50
2024-01-01T00:32:30.882Z,13.27
2024-01-01T00:35:02.908Z,11.93
2024-01-01T00:37:34.735Z,11.70
2024-01-01T00:40:07.181Z,11.97
2024-01-01T00:42:36.638Z,12.57
2024-01-01T00:45:07.106Z,10.73
2024-01-01T00:47:34.301Z,10.30
2024-01-01T00:50:05.930Z,9.83
2024-01-01T00:52:32.890Z,9.40
2024-01-01T00:55:01.145Z,9.40
2024-01-01T00:57:37.703Z,10.70
2024-01-01T01:00:07.717Z,10.00
2024-01-01T01:02:34.608Z,9.67
2024-01-01T01:05:06.732Z,10.10
2024-01-01T01:07:34.364Z,10.90
2024-01-01T01:10:01.311Z,10.90
2024-01-01T01:12:28.345Z,10.77
2024-01-01T01:14:57.549Z,10.43
2024-01-01T01:17:24.461Z,12.17
2024-01-01T01:19:51.407Z,12.60
2024-01-01T01:22:20.627Z,11.33
2024-01-01T01:24:50.060Z,11.67
2024-01-01T01:27:16.955Z,12.30
2024-01-01T01:29:45.911Z,12.80
2024-01-01T01:32:14.959Z,13.70
2024-01-01T01:34:41.859Z,11.97
2024-01-01T01:37:08.813Z,13.53
2024-01-01T01:39:36.592Z,12.17
2024-01-01T01:42:08.158Z,13.43
2024-01-01T01:44:37.825Z,14.10
2024-01-01T01:47:05.233Z,12.83
2024-01-01T01:49:33.123Z,13.73
2024-01-01T01:52:05.778Z,11.67
2024-01-01T01:54:35.687Z,12.23
2024-01-01T01:57:04.494Z,12.43
2024-01-01T01:59:31.651Z,11.30
2024-01-01T02:02:01.614Z,11.53
2024-01-01T02:04:28.720Z,10.67
2024-01-01T02:06:58.275Z,10.07
2024-01-01T02:09:25.231Z,10.80
2024-01-01T02:11:52.102Z,9.03
2024-01-01T02:14:19.941Z,8.80
2024-01-01T02:16:54.066Z,8.83
2024-01-01T02:19:31.193Z,9.73
2024-01-01T02:22:03.729Z,8.53
2024-01-01T02:24:33.103Z,8.17
2024-01-01T02:27:04.875Z,8.50
2024-01-01T02:29:33.846Z,7.20
2024-01-01T02:32:03.933Z,7.20
2024-01-01T11:50:34.065Z,2.23
2024-01-01T11:53:06.956Z,1.70
2024-01-01T11:55:36.264Z,1.70
2024-01-01T11:58:07.682Z,1.97
2024-01-01T12:00:37.757Z,2.17
2024-01-01T12:03:12.584Z,2.07
2024-01-01T12:05:42.999Z,1.50
2024-01-01T12:08:23.291Z,1.80
2024-01-01T12:11:00.624Z,2.17
2024-01-01T12:13:27.822Z,1.80
2024-01-01T12:15:56.845Z,1.70
2024-01-01T12:18:31.175Z,2.13
2024-01-01T12:21:01.207Z,1.73
2024-01-01T12:23:28.189Z,2.00
2024-01-01T12:26:07.828Z,1.90
2024-01-01T12:28:34.778Z,1.90
2024-01-01T12:31:03.978Z,2.03
2024-01-01T12:33:33.989Z,1.60
2024-01-01T12:36:03.580Z,1.70
2024-01-01T12:38:33.053Z,1.90
2024-01-01T12:41:02.419Z,1.67
2024-01-01T12:43:31.527Z,1.70
2024-01-01T12:46:04.064Z,1.97
2024-01-01T12:48:36.288Z,2.23
2024-01-01T12:51:06.905Z,1.83
2024-01-01T12:53:35.967Z,1.90
2024-01-01T12:56:04.417Z,1.70
2024-01-01T12:58:38.533Z,2.10
2024-01-01T13:01:07.870Z,2.13
2024-01-01T13:03:38.489Z,1.53
2024-01-01T13:06:07.613Z,1.93
2024-01-01T13:08:39.498Z,1.57
2024-01-01T13:11:14.014Z,2.47
2024-01-01T13:13:41.883Z,1.47
2024-01-01T13:16:09.782Z,1.70
2024-01-01T13:18:39.702Z,5.07
2024-01-01T13:21:12.062Z,3.97
2024-01-01T13:23:40.045Z,2.77
2024-01-01T13:26:07.603Z,1.90
2024-01-01T13:28:34.558Z,2.07
2024-01-01T13:31:04.274Z,1.70
2024-01-01T13:33:36.299Z,1.70
2024-01-01T13:36:03.752Z,1.87
2024-01-01T13:38:30.827Z,1.67
2024-01-01T13:41:00.496Z,2.10
2024-01-01T13:43:32.074Z,2.40
2024-01-01T13:45:58.924Z,2.03
2024-01-01T13:48:26.214Z,1.80
2024-01-01T13:50:55.307Z,1.70
2024-01-01T13:53:27.856Z,1.93
2024-01-01T13:56:00.473Z,2.07
2024-01-01T13:58:28.617Z,2.27
2024-01-01T14:00:55.599Z,2.20
2024-01-01T14:03:24.725Z,2.13
2024-01-01T14:05:52.108Z,1.60
2024-01-01T14:08:21.699Z,2.67
2024-01-01T14:10:50.948Z,2.03
2024-01-01T14:13:22.787Z,1.93
2024-01-01T14:15:49.654Z,1.73
2024-01-01T14:18:16.550Z,2.00
2024-01-01T14:20:46.701Z,2.00
2024-01-01T14:23:16.303Z,2.00
2024-01-01T14:25:48.374Z,2.67
2024-01-01T14:28:15.568Z,2.60
2024-01-01T14:30:50.476Z,2.27
2024-01-01T14:33:17.499Z,1.90
2024-01-01T14:35:44.551Z,1.90
2024-01-01T14:38:11.644Z,2.73
2024-01-01T14:40:38.528Z,2.00
2024-01-01T14:43:06.803Z,2.10
2024-01-01T14:45:35.388Z,2.30
2024-01-01T14:48:03.874Z,2.40
2024-01-01T14:50:39.499Z,2.10
2024-01-01T14:53:07.946Z,2.63
2024-01-01T14:55:37.727Z,2.47
2024-01-01T14:58:05.039Z,1.90
2024-01-01T15:00:32.821Z,2.17
2024-01-01T15:03:04.199Z,2.30
2024-01-01T15:05:38.473Z,2.53
2024-01-01T15:08:09.490Z,2.10
2024-01-01T15:10:36.405Z,2.33
2024-01-01T15:13:03.684Z,2.30
2024-01-01T15:15:32.987Z,2.63
2024-01-01T15:17:59.889Z,2.00
2024-01-01T15:20:31.613Z,2.10
2024-01-01T15:22:58.579Z,2.20
2024-01-01T15:25:27.584Z,2.30
2024-01-01T15:27:54.462Z,2.27
2024-01-01T15:30:21.356Z,2.90
2024-01-01T15:32:49.006Z,2.33
2024-01-01T15:35:16.056Z,1.97
2024-01-01T15:37:50.789Z,2.97
2024-01-01T15:40:20.678Z,2.37
2024-01-01T15:42:54.044Z,1.83
2024-01-01T15:45:23.768Z,2.53
2024-01-01T15:47:53.172Z,2.10
2024-01-01T15:50:22.602Z,1.90
2024-01-01T15:52:49.658Z,2.83
2024-01-01T15:55:19.152Z,2.80
2024-01-01T15:57:48.292Z,2.93
2024-01-01T16:00:18.550Z,2.33
2024-01-01T16:02:45.517Z,2.63
2024-01-01T16:05:14.556Z,2.47
2024-01-01T16:07:43.971Z,1.83
2024-01-01T16:10:16.159Z,2.27
2024-01-01T16:12:48.572Z,2.40
2024-01-01T16:15:15.571Z,2.30
2024-01-01T16:17:47.330Z,2.47
2024-01-01T16:20:16.824Z,2.93
2024-01-01T16:22:46.635Z,2.10
2024-01-01T16:25:16.918Z,2.93
2024-01-01T16:27:43.760Z,2.00
2024-01-01T16:30:11.561Z,2.10
2024-01-01T16:32:38.619Z,2.27
2024-01-01T16:35:06.090Z,2.87
2024-01-01T16:37:36.049Z,1.83
2024-01-01T16:40:06.509Z,2.60
2024-01-01T16:42:37.700Z,2.40
2024-01-01T16:45:05.437Z,2.60
2024-01-01T16:47:32.500Z,2.27
2024-01-01T16:50:02.807Z,2.43
2024-01-01T16:52:31.919Z,2.43
2024-01-01T16:55:00.807Z,2.50
2024-01-01T16:57:32.155Z,2.57
2024-01-01T17:00:05.208Z,2.37
2024-01-01T17:02:32.775Z,3.00
2024-01-01T17:05:00.078Z,2.20
2024-01-01T17:07:27.112Z,2.20
2024-01-01T17:09:56.156Z,1.97
2024-01-01T17:12:25.664Z,2.83
2024-01-01T17:14:52.672Z,1.90
2024-01-01T17:17:22.622Z,2.70
2024-01-01T17:19:54.589Z,2.17
2024-01-01T17:22:21.533Z,2.57
2024-01-01T17:24:50.546Z,2.90
2024-01-01T17:27:24.666Z,2.13
2024-01-01T17:29:51.628Z,2.03
2024-01-01T17:32:18.666Z,2.20
2024-01-01T17:34:50.466Z,2.53
2024-01-01T17:37:22.438Z,2.73
2024-01-01T17:39:51.597Z,2.60
2024-01-01T17:42:21.099Z,2.23
2024-01-01T17:44:54.003Z,2.10
2024-01-01T17:47:24.567Z,1.77
2024-01-01T17:49:57.176Z,2.30
2024-01-01T17:52:26.258Z,2.77
2024-01-01T17:54:53.175Z,2.73
2024-01-01T17:57:22.146Z,2.10
2024-01-01T17:59:57.209Z,2.13
2024-01-01T18:02:24.342Z,2.53
2024-01-01T18:04:51.434Z,2.77
2024-01-01T18:07:20.472Z,2.07
2024-01-01T18:09:49.675Z,2.13
2024-01-01T18:12:19.044Z,1.87
2024-01-01T18:14:50.741Z,2.27
2024-01-01T18:17:19.450Z,2.47
2024-01-01T18:19:56.524Z,2.10
2024-01-01T18:22:26.461Z,2.80
2024-01-01T18:24:53.289Z,1.90
2024-01-01T18:27:20.243Z,2.50
2024-01-01T18:29:51.880Z,2.27
2024-01-01T18:32:19.214Z,2.33
2024-01-01T18:34:50.573Z,3.13
2024-01-01T18:37:19.670Z,2.70
2024-01-01T18:39:49.090Z,2.63
2024-01-01T18:42:20.666Z,2.37
2024-01-01T18:44:47.531Z,2.77
2024-01-01T18:47:17.163Z,2.03
2024-01-01T18:49:44.205Z,2.67
2024-01-01T18:52:15.571Z,2.07
2024-01-01T18:54:42.452Z,2.40
2024-01-01T18:57:09.378Z,2.13
2024-01-01T18:59:39.735Z,2.20
2024-01-01T19:02:06.903Z,2.50
2024-01-01T19:04:38.655Z,2.20
2024-01-01T19:07:07.189Z,2.60
2024-01-01T19:09:40.408Z,2.77
2024-01-01T19:12:07.811Z,2.53
2024-01-01T19:14:34.751Z,2.67
2024-01-01T19:17:03.967Z,2.53
2024-01-01T19:19:33.577Z,3.00
2024-01-01T19:22:03.138Z,2.87
2024-01-01T19:24:34.886Z,2.50
2024-01-01T19:27:02.049Z,1.93
2024-01-01T19:29:36.101Z,2.90
2024-01-01T19:32:03.230Z,2.50
2024-01-01T19:34:30.150Z,2.47
2024-01-01T19:36:57.078Z,2.33
2024-01-01T19:39:26.609Z,2.00
2024-01-01T19:41:57.595Z,2.50
2024-01-01T19:44:24.576Z,3.37
2024-01-01T19:46:58.501Z,2.83
2024-01-01T19:49:27.747Z,2.70
2024-01-01T19:51:56.805Z,2.73
2024-01-01T19:54:27.069Z,2.40
2024-01-01T19:56:54.104Z,2.90
2024-01-01T19:59:25.627Z,2.27
2024-01-01T20:01:54.968Z,2.10
2024-01-01T20:04:28.065Z,2.07
2024-01-01T20:06:59.495Z,2.10
2024-01-01T20:09:26.444Z,1.83
2024-01-01T20:11:53.659Z,1.70
2024-01-01T20:14:20.624Z,2.30
2024-01-01T20:16:50.049Z,2.57
2024-01-01T20:19:20.027Z,1.73
2024-01-01T20:21:53.479Z,2.73
2024-01-01T20:24:24.628Z,1.73
2024-01-01T20:26:51.618Z,1.80
2024-01-01T20:29:23.101Z,1.80
2024-01-01T20:31:50.106Z,1.80
2024-01-01T20:34:19.751Z,1.50
2024-01-01T20:36:51.421Z,1.67
2024-01-01T20:39:21.440Z,1.73
2024-01-01T20:41:48.625Z,2.47
2024-01-01T20:44:20.208Z,1.97
2024-01-01T20:46:47.242Z,1.60
2024-01-01T20:49:16.365Z,1.90
2024-01-01T20:51:45.680Z,1.83
2024-01-01T20:54:12.584Z,2.40
2024-01-01T20:56:39.500Z,2.23
2024-01-01T20:59:11.345Z,1.83
2024-01-01T21:01:42.031Z,2.80
2024-01-01T21:04:11.458Z,2.37
2024-01-01T21:06:45.485Z,2.77
2024-01-01T21:09:14.751Z,2.20
2024-01-01T21:11:41.976Z,2.60
2024-01-01T21:14:11.202Z,2.90
2024-01-01T21:16:44.892Z,2.40
2024-01-01T21:19:14.156Z,2.47
2024-01-01T21:21:46.173Z,2.00
2024-01-01T21:24:15.453Z,3.20
2024-01-01T21:26:46.790Z,2.10
2024-01-01T21:29:16.230Z,1.50
2024-01-01T21:31:43.126Z,2.37
2024-01-01T21:34:10.123Z,2.53
2024-01-01T21:36:41.632Z,2.23
2024-01-01T21:39:11.235Z,2.20
2024-01-01T21:41:40.232Z,2.27
2024-01-01T21:44:07.181Z,2.87
2024-01-01T21:46:40.288Z,2.57
2024-01-01T21:49:08.776Z,1.83
2024-01-01T21:51:40.597Z,1.87
2024-01-01T21:54:07.556Z,2.40
2024-01-01T21:56:36.959Z,1.70
2024-01-01T21:59:04.087Z,2.03
2024-01-01T22:01:36.511Z,2.00
2024-01-01T22:04:05.674Z,1.97
2024-01-01T22:06:39.181Z,2.43
